createdAt,value
2022-08-01T00:00:51.729Z,99.90
2022-08-01T00:03:19.612Z,99.90
2022-08-01T00:05:47.653Z,99.90
2022-08-01T00:08:15.505Z,99.90
2022-08-01T00:10:43.441Z,99.90
2022-08-01T00:13:11.292Z,99.90
2022-08-01T00:15:39.169Z,99.90
2022-08-01T00:18:08.393Z,99.90
2022-08-01T00:20:36.260Z,99.90
2022-08-01T00:23:04.564Z,99.90
2022-08-01T00:25:33.468Z,99.90
2022-08-01T00:28:04.093Z,99.90
2022-08-01T00:30:32.641Z,99.90
2022-08-01T00:33:00.485Z,99.90
2022-08-01T00:35:29.708Z,99.90
2022-08-01T00:37:57.601Z,99.90
2022-08-01T00:40:25.501Z,99.90
2022-08-01T00:42:53.381Z,99.90
2022-08-01T00:45:21.243Z,99.90
2022-08-01T00:47:49.113Z,99.90
2022-08-01T00:50:24.807Z,99.90
2022-08-01T00:52:54.251Z,99.90
2022-08-01T00:55:22.250Z,99.90
2022-08-01T00:58:05.542Z,99.90
2022-08-01T01:00:52.456Z,99.90
2022-08-01T01:03:23.899Z,99.90
2022-08-01T01:06:04.020Z,99.90
2022-08-01T01:08:37.761Z,99.90
2022-08-01T01:11:11.449Z,99.90
2022-08-01T01:13:48.595Z,99.90
2022-08-01T01:16:19.569Z,99.90
2022-08-01T01:18:48.757Z,99.90
2022-08-01T01:21:34.916Z,99.90
2022-08-01T01:24:09.537Z,99.90
2022-08-01T01:26:41.187Z,99.90
2022-08-01T01:29:13.745Z,99.90
2022-08-01T01:31:45.210Z,99.90
2022-08-01T01:34:14.670Z,99.90
2022-08-01T01:36:42.789Z,99.90
2022-08-01T01:39:10.691Z,99.90
2022-08-01T01:41:39.241Z,99.90
2022-08-01T01:44:07.268Z,99.90
2022-08-01T01:46:36.528Z,99.90
2022-08-01T01:49:04.555Z,99.90
2022-08-01T01:51:32.444Z,99.90
2022-08-01T01:54:00.366Z,99.90
2022-08-01T01:56:28.312Z,99.90
2022-08-01T01:58:58.600Z,99.90
2022-08-01T02:01:58.059Z,99.90
2022-08-01T02:04:17.666Z,99.90
2022-08-01T02:06:46.104Z,99.90
2022-08-01T02:09:13.925Z,99.90
2022-08-01T02:12:08.215Z,99.90
2022-08-01T02:14:29.535Z,99.90
2022-08-01T02:16:58.695Z,99.90
2022-08-01T02:19:28.169Z,99.90
2022-08-01T02:21:58.187Z,99.90
2022-08-01T02:24:37.733Z,99.90
2022-08-01T02:27:08.754Z,99.90
2022-08-01T02:29:39.900Z,99.90
2022-08-01T02:32:08.593Z,99.90
2022-08-01T02:34:37.918Z,99.90
2022-08-01T02:37:05.820Z,99.90
2022-08-01T02:39:33.719Z,99.90
2022-08-01T02:42:05.037Z,99.90
2022-08-01T02:44:35.158Z,99.90
2022-08-01T02:47:04.204Z,99.90
2022-08-01T02:49:33.810Z,99.90
2022-08-01T02:52:04.075Z,99.90
2022-08-01T02:54:32.351Z,99.90
2022-08-01T02:57:01.341Z,99.90
2022-08-01T02:59:30.750Z,99.90
2022-08-01T03:01:58.946Z,99.90
2022-08-01T03:04:28.605Z,99.90
2022-08-01T03:06:59.302Z,99.90
2022-08-01T03:09:28.723Z,99.90
2022-08-01T03:11:56.932Z,99.90
2022-08-01T03:14:24.895Z,99.90
2022-08-01T03:16:53.540Z,99.90
2022-08-01T03:19:21.398Z,99.90
2022-08-01T03:21:49.197Z,99.90
2022-08-01T03:24:17.002Z,99.90
2022-08-01T03:26:46.190Z,99.90
2022-08-01T03:29:16.229Z,99.90
2022-08-01T03:31:44.445Z,99.90
2022-08-01T03:34:12.368Z,99.90
2022-08-01T03:36:47.528Z,99.90
2022-08-01T03:39:18.511Z,99.90
2022-08-01T03:41:56.234Z,99.90
2022-08-01T03:44:26.689Z,99.90
2022-08-01T03:46:56.504Z,99.90
2022-08-01T03:49:26.344Z,99.90
2022-08-01T03:51:54.507Z,99.90
2022-08-01T03:54:23.431Z,99.90
2022-08-01T03:56:53.579Z,99.90
2022-08-01T03:59:21.836Z,99.90
2022-08-01T04:01:50.109Z,99.90
2022-08-01T04:04:18.305Z,99.90
2022-08-01T04:06:46.541Z,99.90
2022-08-01T04:09:14.658Z,99.90
2022-08-01T04:11:43.214Z,99.90
2022-08-01T04:14:12.850Z,99.90
2022-08-01T04:16:40.941Z,99.90
2022-08-01T04:19:12.709Z,99.90
2022-08-01T04:21:40.865Z,99.90
2022-08-01T04:24:11.223Z,99.90
2022-08-01T04:30:30.853Z,99.90
2022-08-01T04:33:00.141Z,99.90
2022-08-01T04:36:01.582Z,99.90
2022-08-01T04:38:19.189Z,99.90
2022-08-01T04:40:47.672Z,99.90
2022-08-01T04:43:15.837Z,99.90
2022-08-01T04:45:45.721Z,99.90
2022-08-01T04:48:13.731Z,99.90
2022-08-01T04:50:43.014Z,99.90
2022-08-01T04:53:15.352Z,99.90
2022-08-01T04:55:43.402Z,99.90
2022-08-01T04:58:13.268Z,99.90
2022-08-01T05:00:45.777Z,99.90
2022-08-01T05:03:13.776Z,99.90
2022-08-01T05:05:41.908Z,99.90
2022-08-01T05:08:10.155Z,99.90
2022-08-01T05:10:38.222Z,99.90
2022-08-01T05:13:07.601Z,99.90
2022-08-01T05:19:18.345Z,99.90
2022-08-01T05:21:46.568Z,99.90
2022-08-01T05:24:14.927Z,99.90
2022-08-01T05:26:44.590Z,99.90
2022-08-01T05:29:12.510Z,99.90
2022-08-01T05:31:40.479Z,99.90
2022-08-01T05:34:15.279Z,99.90
2022-08-01T05:36:44.843Z,99.90
2022-08-01T05:39:13.210Z,99.90
2022-08-01T05:41:41.366Z,99.90
2022-08-01T05:44:09.366Z,99.90
2022-08-01T05:46:37.609Z,99.90
2022-08-01T05:49:06.407Z,99.90
2022-08-01T05:51:34.643Z,99.90
2022-08-01T05:54:04.643Z,99.90
2022-08-01T05:56:32.716Z,99.90
2022-08-01T05:59:00.681Z,99.90
2022-08-01T06:01:28.561Z,99.90
2022-08-01T06:03:56.517Z,99.90
2022-08-01T06:06:25.548Z,99.90
2022-08-01T06:08:53.907Z,99.90
2022-08-01T06:11:23.186Z,99.90
2022-08-01T06:13:51.240Z,99.90
2022-08-01T06:16:19.217Z,99.90
2022-08-01T06:18:47.417Z,99.90
2022-08-01T06:21:15.419Z,99.90
2022-08-01T06:23:43.615Z,99.90
2022-08-01T06:26:11.753Z,99.90
2022-08-01T06:28:41.142Z,99.90
2022-08-01T06:31:10.842Z,99.90
2022-08-01T06:33:38.824Z,99.90
2022-08-01T06:36:06.863Z,99.90
2022-08-01T06:38:34.820Z,99.90
2022-08-01T06:41:03.297Z,99.90
2022-08-01T06:43:47.850Z,99.90
2022-08-01T06:46:15.709Z,99.90
2022-08-01T06:48:43.712Z,99.90
2022-08-01T06:51:14.659Z,99.90
2022-08-01T06:53:43.872Z,99.90
2022-08-01T06:56:12.154Z,99.90
2022-08-01T06:58:40.123Z,99.90
2022-08-01T07:01:09.609Z,99.90
2022-08-01T07:03:52.240Z,99.90
2022-08-01T07:06:23.619Z,99.90
2022-08-01T07:08:51.600Z,99.90
2022-08-01T07:11:19.526Z,99.90
2022-08-01T07:13:47.528Z,99.90
2022-08-01T07:16:17.072Z,99.90
2022-08-01T07:18:45.076Z,99.90
2022-08-01T07:21:38.349Z,99.90
2022-08-01T07:24:01.243Z,99.90
2022-08-01T07:26:29.372Z,99.90
2022-08-01T07:28:57.374Z,99.90
2022-08-01T07:31:30.587Z,99.90
2022-08-01T07:34:00.178Z,99.90
2022-08-01T07:36:28.096Z,99.90
2022-08-01T07:38:56.032Z,99.90
2022-08-01T07:41:53.561Z,99.90
2022-08-01T07:44:11.945Z,99.90
2022-08-01T07:50:21.945Z,99.90
2022-08-01T07:53:41.171Z,99.90
2022-08-01T07:56:09.075Z,99.90
2022-08-01T07:58:36.937Z,99.90
2022-08-01T08:01:04.924Z,99.90
2022-08-01T08:03:32.772Z,99.90
2022-08-01T08:06:02.003Z,99.90
2022-08-01T08:08:29.919Z,99.90
2022-08-01T08:10:58.077Z,99.90
2022-08-01T08:13:25.947Z,99.90
2022-08-01T08:15:53.817Z,99.90
2022-08-01T08:18:21.657Z,99.90
2022-08-01T08:20:50.191Z,99.90
2022-08-01T08:23:42.982Z,96.90
2022-08-01T08:26:11.657Z,99.90
2022-08-01T08:28:40.663Z,94.00
2022-08-01T08:31:25.165Z,94.50
2022-08-01T08:33:56.827Z,96.80
2022-08-01T08:36:31.017Z,99.90
2022-08-01T08:39:01.437Z,99.90
2022-08-01T08:41:37.719Z,99.90
2022-08-01T08:44:06.846Z,99.90
2022-08-01T08:46:42.096Z,96.40
2022-08-01T08:49:10.473Z,99.90
2022-08-01T08:51:40.402Z,99.90
2022-08-01T08:54:09.639Z,93.20
2022-08-01T08:56:37.624Z,95.50
2022-08-01T08:59:05.724Z,97.50
2022-08-01T09:01:35.891Z,91.60
2022-08-01T09:04:04.276Z,97.00
2022-08-01T09:06:32.144Z,94.10
2022-08-01T09:09:00.060Z,90.00
2022-08-01T09:11:29.276Z,83.40
2022-08-01T09:14:16.248Z,91.00
2022-08-01T09:16:48.575Z,94.50
2022-08-01T09:19:39.811Z,99.90
2022-08-01T09:22:07.094Z,97.00
2022-08-01T09:24:35.199Z,70.60
2022-08-01T09:27:16.930Z,56.40
2022-08-01T09:29:45.577Z,59.00
2022-08-01T09:32:17.825Z,71.70
2022-08-01T09:34:47.224Z,85.90
2022-08-01T09:37:18.227Z,89.70
2022-08-01T09:39:58.753Z,99.90
2022-08-01T09:42:29.497Z,87.30
2022-08-01T09:44:57.495Z,96.30
2022-08-01T09:47:25.856Z,67.30
2022-08-01T09:49:56.283Z,56.50
2022-08-01T09:52:29.334Z,77.10
2022-08-01T09:54:58.299Z,99.90
2022-08-01T09:57:27.627Z,99.50
2022-08-01T09:59:59.175Z,84.80
2022-08-01T10:02:31.263Z,79.00
2022-08-01T10:05:03.693Z,92.70
2022-08-01T10:07:42.992Z,90.40
2022-08-01T10:10:12.891Z,83.60
2022-08-01T10:12:45.535Z,86.50
2022-08-01T10:15:14.501Z,92.30
2022-08-01T10:17:50.660Z,93.00
2022-08-01T10:20:28.862Z,76.40
2022-08-01T10:23:00.632Z,80.90
2022-08-01T10:25:43.157Z,86.10
2022-08-01T10:28:18.235Z,98.50
2022-08-01T10:30:49.969Z,87.50
2022-08-01T10:33:49.660Z,86.10
2022-08-01T10:36:08.596Z,95.50
2022-08-01T10:38:37.290Z,67.50
2022-08-01T10:41:06.376Z,44.70
2022-08-01T10:43:36.402Z,50.60
2022-08-01T10:46:04.553Z,67.40
2022-08-01T10:48:36.306Z,52.60
2022-08-01T10:51:17.878Z,79.70
2022-08-01T10:53:50.209Z,29.90
2022-08-01T10:56:22.644Z,49.90
2022-08-01T10:59:06.811Z,34.10
2022-08-01T11:01:44.954Z,36.40
2022-08-01T11:04:17.009Z,41.80
2022-08-01T11:06:56.690Z,44.50
2022-08-01T11:09:37.472Z,48.80
2022-08-01T11:12:13.429Z,36.00
2022-08-01T11:15:30.110Z,45.30
2022-08-01T11:18:01.395Z,53.40
2022-08-01T11:20:31.251Z,34.80
2022-08-01T11:23:29.762Z,36.90
2022-08-01T11:26:29.104Z,31.00
2022-08-01T11:29:21.166Z,23.90
2022-08-01T11:31:50.176Z,42.40
2022-08-01T11:34:19.710Z,33.90
2022-08-01T11:37:03.399Z,22.70
2022-08-01T11:39:34.317Z,20.50
2022-08-01T11:42:20.642Z,24.50
2022-08-01T11:44:52.174Z,38.10
2022-08-01T11:47:21.214Z,28.00
2022-08-01T11:49:56.318Z,27.70
2022-08-01T11:52:28.115Z,39.40
2022-08-01T11:54:57.070Z,31.00
2022-08-01T11:57:34.851Z,11.90
2022-08-01T12:00:07.095Z,12.70
2022-08-01T12:02:36.842Z,40.80
2022-08-01T12:05:08.449Z,29.70
2022-08-01T12:07:38.838Z,29.20
2022-08-01T12:10:07.968Z,29.60
2022-08-01T12:12:36.913Z,53.20
2022-08-01T12:15:06.301Z,37.60
2022-08-01T12:17:38.806Z,38.60
2022-08-01T12:20:10.432Z,24.90
2022-08-01T12:22:38.479Z,24.00
2022-08-01T12:25:10.857Z,12.10
2022-08-01T12:27:38.924Z,20.60
2022-08-01T12:30:09.105Z,27.90
2022-08-01T12:32:37.682Z,31.20
2022-08-01T12:35:06.661Z,24.50
2022-08-01T12:37:37.086Z,51.70
2022-08-01T12:40:12.571Z,17.70
2022-08-01T12:42:41.520Z,29.50
2022-08-01T12:45:10.871Z,22.70
2022-08-01T12:47:39.151Z,6.80
2022-08-01T12:50:08.342Z,8.60
2022-08-01T12:52:37.659Z,15.70
2022-08-01T12:55:09.609Z,9.00
2022-08-01T12:57:38.950Z,1.00
2022-08-01T13:00:08.722Z,1.00
2022-08-01T13:02:36.828Z,1.90
2022-08-01T13:05:05.185Z,1.00
2022-08-01T13:07:45.876Z,1.00
2022-08-01T13:10:14.497Z,3.00
2022-08-01T13:12:43.279Z,5.30
2022-08-01T13:15:26.200Z,16.50
2022-08-01T13:17:54.198Z,17.60
2022-08-01T13:20:26.572Z,16.20
2022-08-01T13:22:55.834Z,23.30
2022-08-01T13:25:26.056Z,18.00
2022-08-01T13:28:16.202Z,17.90
2022-08-01T13:30:56.014Z,13.10
2022-08-01T13:33:24.177Z,18.60
2022-08-01T13:35:53.744Z,2.20
2022-08-01T13:38:43.959Z,1.50
2022-08-01T13:41:11.828Z,1.70
2022-08-01T13:43:58.641Z,8.30
2022-08-01T13:46:29.669Z,3.90
2022-08-01T13:48:57.616Z,4.10
2022-08-01T13:51:33.085Z,22.10
2022-08-01T13:54:02.264Z,1.70
2022-08-01T13:56:30.249Z,5.70
2022-08-01T13:58:58.225Z,1.00
2022-08-01T14:01:29.882Z,6.80
2022-08-01T14:04:00.214Z,1.00
2022-08-01T14:06:28.067Z,7.90
2022-08-01T14:08:55.905Z,1.00
2022-08-01T14:11:25.479Z,5.30
2022-08-01T14:13:58.221Z,1.80
2022-08-01T14:16:26.063Z,2.20
2022-08-01T14:18:53.890Z,1.00
2022-08-01T14:21:21.725Z,1.00
2022-08-01T14:23:49.549Z,1.00
2022-08-01T14:26:17.420Z,1.00
2022-08-01T14:28:46.629Z,1.00
2022-08-01T14:31:14.483Z,1.00
2022-08-01T14:33:42.309Z,1.00
2022-08-01T14:36:29.282Z,1.00
2022-08-01T14:39:00.331Z,1.00
2022-08-01T14:41:28.729Z,1.00
2022-08-01T14:44:00.817Z,2.50
2022-08-01T14:46:28.691Z,1.00
2022-08-01T14:48:59.571Z,6.60
2022-08-01T14:51:27.431Z,1.00
2022-08-01T14:53:55.267Z,1.00
2022-08-01T14:56:23.112Z,1.00
2022-08-01T14:58:50.932Z,4.50
2022-08-01T15:01:20.207Z,4.20
2022-08-01T15:03:48.976Z,6.20
2022-08-01T15:06:16.895Z,1.00
2022-08-01T15:08:45.136Z,1.00
2022-08-01T15:11:13.017Z,1.00
2022-08-01T15:13:42.821Z,1.00
2022-08-01T15:16:13.060Z,4.20
2022-08-01T15:18:43.004Z,15.80
2022-08-01T15:21:17.277Z,31.50
2022-08-01T15:23:52.950Z,49.00
2022-08-01T15:26:20.804Z,49.40
2022-08-01T15:28:48.620Z,40.50
2022-08-01T15:31:16.469Z,44.90
2022-08-01T15:33:45.647Z,50.00
2022-08-01T15:36:15.354Z,49.20
2022-08-01T15:38:43.368Z,52.30
2022-08-01T15:41:11.192Z,58.60
2022-08-01T15:43:41.900Z,60.70
2022-08-01T15:46:12.126Z,61.00
2022-08-01T15:48:40.285Z,60.50
2022-08-01T15:51:09.658Z,58.20
2022-08-01T15:53:37.493Z,62.10
2022-08-01T15:56:06.102Z,61.80
2022-08-01T15:58:33.943Z,72.70
2022-08-01T16:01:01.829Z,79.50
2022-08-01T16:03:29.715Z,88.50
2022-08-01T16:05:57.560Z,90.20
2022-08-01T16:08:26.801Z,92.30
2022-08-01T16:10:54.681Z,99.90
2022-08-01T16:13:22.519Z,99.90
2022-08-01T16:15:50.365Z,99.90
2022-08-01T16:18:18.298Z,99.90
2022-08-01T16:20:46.384Z,99.90
2022-08-01T16:23:14.588Z,99.90
2022-08-01T16:25:44.548Z,99.90
2022-08-01T16:28:12.565Z,99.90
2022-08-01T16:30:41.613Z,99.90
2022-08-01T16:33:45.704Z,99.90
2022-08-01T16:36:06.789Z,99.90
2022-08-01T16:38:34.673Z,99.90
2022-08-01T16:41:03.888Z,99.90
2022-08-01T16:43:53.405Z,99.90
2022-08-01T16:46:23.101Z,99.90
2022-08-01T16:48:50.991Z,99.90
2022-08-01T16:51:19.911Z,99.90
2022-08-01T16:53:47.776Z,99.90
2022-08-01T16:56:17.050Z,99.90
2022-08-01T16:58:45.148Z,99.90
2022-08-01T17:01:58.758Z,99.90
2022-08-01T17:04:01.808Z,99.90
2022-08-01T17:06:29.880Z,99.90
2022-08-01T17:08:57.754Z,99.90
2022-08-01T17:11:26.967Z,99.90
2022-08-01T17:13:54.778Z,99.90
2022-08-01T17:16:22.761Z,99.90
2022-08-01T17:18:50.655Z,99.90
2022-08-01T17:21:18.479Z,99.90
2022-08-01T17:23:46.334Z,99.90
2022-08-01T17:26:14.192Z,99.90
2022-08-01T17:28:43.690Z,99.90
2022-08-01T17:31:11.703Z,99.90
2022-08-01T17:33:45.705Z,99.90
2022-08-01T17:36:14.898Z,99.90
2022-08-01T17:38:42.768Z,99.90
2022-08-01T17:41:10.633Z,99.90
2022-08-01T17:43:38.476Z,99.90
2022-08-01T17:46:08.156Z,99.90
2022-08-01T17:48:36.031Z,99.90
2022-08-01T17:51:03.915Z,99.90
2022-08-01T17:53:31.806Z,99.90
2022-08-01T17:56:01.507Z,99.90
2022-08-01T17:58:49.845Z,99.90
2022-08-01T18:01:19.038Z,99.90
2022-08-01T18:03:47.255Z,99.90
2022-08-01T18:06:17.412Z,99.90
2022-08-01T18:08:46.971Z,99.90
2022-08-01T18:11:15.714Z,99.90
2022-08-01T18:13:43.810Z,99.90
2022-08-01T18:16:13.091Z,99.90
2022-08-01T18:18:43.482Z,99.90
2022-08-01T18:21:12.073Z,99.90
2022-08-01T18:23:39.915Z,99.90
2022-08-01T18:26:09.423Z,99.90
2022-08-01T18:28:41.783Z,99.90
2022-08-01T18:31:16.461Z,99.90
2022-08-01T18:33:46.136Z,99.90
2022-08-01T18:36:20.289Z,99.90
2022-08-01T18:39:00.443Z,99.90
2022-08-01T18:41:29.794Z,99.90
2022-08-01T18:44:07.382Z,99.90
2022-08-01T18:46:37.240Z,99.90
2022-08-01T18:49:06.799Z,99.90
2022-08-01T18:51:35.653Z,99.90
2022-08-01T18:54:05.756Z,99.90
2022-08-01T18:56:33.588Z,99.90
2022-08-01T18:59:01.418Z,99.90
2022-08-01T19:01:29.314Z,99.90
2022-08-01T19:03:57.199Z,99.90
2022-08-01T19:06:27.145Z,99.90
2022-08-01T19:08:58.310Z,99.90
2022-08-01T19:11:29.480Z,99.90
2022-08-01T19:13:57.337Z,99.90
2022-08-01T19:16:25.178Z,99.90
2022-08-01T19:18:53.027Z,99.90
2022-08-01T19:21:22.342Z,99.90
2022-08-01T19:24:09.169Z,99.90
2022-08-01T19:26:39.031Z,99.90
2022-08-01T19:29:10.064Z,99.90
2022-08-01T19:31:40.529Z,99.90
2022-08-01T19:34:09.578Z,99.90
2022-08-01T19:36:37.451Z,99.90
2022-08-01T19:39:06.640Z,99.90
2022-08-01T19:41:34.739Z,99.90
2022-08-01T19:44:03.522Z,99.90
2022-08-01T19:46:31.478Z,99.90
2022-08-01T19:48:59.484Z,99.90
2022-08-01T19:51:33.827Z,99.90
2022-08-01T19:54:04.799Z,99.90
2022-08-01T19:56:39.694Z,99.90
2022-08-01T19:59:58.104Z,99.90
2022-08-01T20:02:25.887Z,99.90
2022-08-01T20:04:53.666Z,99.90
2022-08-01T20:07:21.508Z,99.90
2022-08-01T20:09:50.768Z,99.90
2022-08-01T20:12:23.795Z,99.90
2022-08-01T20:14:53.730Z,99.90
2022-08-01T20:17:21.851Z,99.90
2022-08-01T20:19:49.695Z,99.90
2022-08-01T20:22:19.414Z,99.90
2022-08-01T20:24:49.932Z,99.90
2022-08-01T20:27:18.558Z,99.90
2022-08-01T20:29:47.735Z,99.90
2022-08-01T20:32:15.543Z,99.90
2022-08-01T20:34:43.350Z,99.90
2022-08-01T20:37:13.082Z,99.90
2022-08-01T20:39:43.417Z,99.90
2022-08-01T20:42:12.198Z,99.90
2022-08-01T20:44:40.050Z,99.90
2022-08-01T20:47:09.553Z,99.90
2022-08-01T20:49:37.753Z,99.90
2022-08-01T20:52:11.121Z,99.90
2022-08-01T20:54:40.666Z,99.90
2022-08-01T20:57:12.782Z,99.90
2022-08-01T20:59:55.773Z,99.90
2022-08-01T21:02:31.955Z,99.90
2022-08-01T21:05:03.278Z,99.90
2022-08-01T21:07:34.244Z,99.90
2022-08-01T21:10:06.540Z,99.90
2022-08-01T21:12:43.620Z,99.90
2022-08-01T21:15:15.246Z,99.90
2022-08-01T21:17:46.844Z,99.90
2022-08-01T21:20:15.147Z,99.90
2022-08-01T21:22:48.773Z,99.90
2022-08-01T21:25:17.029Z,99.90
2022-08-01T21:27:44.867Z,99.90
2022-08-01T21:30:13.711Z,99.90
2022-08-01T21:32:41.895Z,99.90
2022-08-01T21:35:16.846Z,99.90
2022-08-01T21:37:51.911Z,99.90
2022-08-01T21:40:21.200Z,99.90
2022-08-01T21:42:49.535Z,99.90
2022-08-01T21:45:17.320Z,99.90
2022-08-01T21:47:46.275Z,99.90
2022-08-01T21:50:15.581Z,99.90
2022-08-01T21:52:44.807Z,99.90
2022-08-01T21:55:19.979Z,99.90
2022-08-01T21:57:56.994Z,99.90
2022-08-01T22:00:26.289Z,99.90
2022-08-01T22:02:59.229Z,99.90
2022-08-01T22:05:50.601Z,99.90
2022-08-01T22:08:18.603Z,99.90
2022-08-01T22:10:46.434Z,99.90
2022-08-01T22:13:14.620Z,99.90
2022-08-01T22:15:44.975Z,99.90
2022-08-01T22:18:13.374Z,99.90
2022-08-01T22:20:42.646Z,99.90
2022-08-01T22:23:10.449Z,99.90
2022-08-01T22:25:38.328Z,99.90
2022-08-01T22:28:09.299Z,99.90
2022-08-01T22:30:41.445Z,99.90
2022-08-01T22:33:16.458Z,99.90
2022-08-01T22:35:47.152Z,99.90
2022-08-01T22:38:15.004Z,99.90
2022-08-01T22:40:48.629Z,99.90
2022-08-01T22:43:21.718Z,99.90
2022-08-01T22:45:51.916Z,99.90
2022-08-01T22:48:20.732Z,99.90
2022-08-01T22:50:51.948Z,99.90
2022-08-01T22:53:24.245Z,99.90
2022-08-01T22:55:59.036Z,99.90
2022-08-01T22:58:27.644Z,99.90
2022-08-01T23:00:55.972Z,99.90
2022-08-01T23:03:27.070Z,99.90
2022-08-01T23:05:58.013Z,99.90
2022-08-01T23:08:25.863Z,99.90
2022-08-01T23:10:53.732Z,99.90
2022-08-01T23:13:21.533Z,99.90
2022-08-01T23:15:52.390Z,99.90
2022-08-01T23:18:20.555Z,99.90
2022-08-01T23:20:48.400Z,99.90
2022-08-01T23:23:18.026Z,99.90
2022-08-01T23:25:58.981Z,99.90
2022-08-01T23:28:26.836Z,99.90
2022-08-01T23:30:54.777Z,99.90
2022-08-01T23:33:22.767Z,99.90
2022-08-01T23:35:50.695Z,99.90
2022-08-01T23:38:20.309Z,99.90
2022-08-01T23:40:50.026Z,99.90
2022-08-01T23:43:18.229Z,99.90
2022-08-01T23:46:03.350Z,99.90
2022-08-01T23:48:33.737Z,99.90
2022-08-01T23:51:01.615Z,99.90
2022-08-01T23:53:31.543Z,99.90
2022-08-01T23:56:01.146Z,99.90
2022-08-01T23:58:30.746Z,99.90
